createdAt,value
2022-07-28T00:00:16.538Z,22.53
2022-07-28T00:02:46.597Z,22.39
2022-07-28T00:05:14.021Z,22.39
2022-07-28T00:07:41.611Z,22.34
2022-07-28T00:10:09.594Z,22.33
2022-07-28T00:12:38.102Z,22.31
2022-07-28T00:15:06.236Z,22.25
2022-07-28T00:17:33.361Z,22.21
2022-07-28T00:20:00.555Z,22.19
2022-07-28T00:22:29.677Z,22.08
2022-07-28T00:24:56.969Z,22.05
2022-07-28T00:27:25.128Z,21.96
2022-07-28T00:29:52.099Z,21.97
2022-07-28T00:32:21.058Z,21.96
2022-07-28T00:34:48.449Z,21.97
2022-07-28T00:37:15.546Z,21.85
2022-07-28T00:39:44.062Z,21.73
2022-07-28T00:42:12.569Z,21.71
2022-07-28T00:44:42.903Z,21.72
2022-07-28T00:47:13.187Z,21.73
2022-07-28T00:49:45.753Z,21.65
2022-07-28T00:52:13.953Z,21.65
2022-07-28T00:54:41.167Z,21.61
2022-07-28T00:57:08.267Z,21.60
2022-07-28T00:59:35.442Z,21.53
2022-07-28T01:02:03.607Z,21.48
2022-07-28T01:04:31.323Z,21.52
2022-07-28T01:07:16.770Z,21.45
2022-07-28T01:10:14.790Z,21.33
2022-07-28T01:13:03.197Z,21.36
2022-07-28T01:15:34.107Z,21.30
2022-07-28T01:18:17.811Z,21.31
2022-07-28T01:20:49.580Z,21.31
2022-07-28T01:23:31.761Z,21.32
2022-07-28T01:26:21.399Z,21.32
2022-07-28T01:29:16.526Z,21.28
2022-07-28T01:31:48.398Z,21.23
2022-07-28T01:34:20.418Z,21.17
2022-07-28T01:36:53.639Z,21.16
2022-07-28T01:39:25.375Z,21.12
2022-07-28T01:41:55.264Z,21.07
2022-07-28T01:44:26.972Z,21.07
2022-07-28T01:46:56.345Z,21.07
2022-07-28T01:49:26.857Z,21.05
2022-07-28T01:51:56.381Z,20.98
2022-07-28T01:54:27.938Z,21.00
2022-07-28T01:56:57.474Z,20.94
2022-07-28T01:59:26.474Z,20.85
2022-07-28T02:01:54.789Z,20.76
2022-07-28T02:04:23.957Z,20.72
2022-07-28T02:06:53.389Z,20.68
2022-07-28T02:09:23.263Z,20.73
2022-07-28T02:11:54.288Z,20.73
2022-07-28T02:14:25.994Z,20.73
2022-07-28T02:17:03.963Z,20.74
2022-07-28T02:19:32.742Z,20.63
2022-07-28T02:22:03.550Z,20.61
2022-07-28T02:24:32.826Z,20.62
2022-07-28T02:27:06.382Z,20.57
2022-07-28T02:29:52.185Z,20.58
2022-07-28T02:32:28.754Z,20.43
2022-07-28T02:35:06.019Z,20.42
2022-07-28T02:37:40.480Z,20.39
2022-07-28T02:40:13.947Z,20.31
2022-07-28T02:42:43.351Z,20.13
2022-07-28T02:45:13.400Z,20.10
2022-07-28T02:47:46.567Z,20.07
2022-07-28T02:50:17.106Z,20.05
2022-07-28T02:52:49.795Z,20.12
2022-07-28T02:55:17.852Z,20.15
2022-07-28T02:57:50.887Z,20.10
2022-07-28T03:00:21.776Z,20.08
2022-07-28T03:02:49.459Z,20.09
2022-07-28T03:05:16.953Z,20.11
2022-07-28T03:07:50.766Z,20.08
2022-07-28T03:10:33.458Z,19.96
2022-07-28T03:13:07.062Z,19.90
2022-07-28T03:15:35.839Z,19.91
2022-07-28T03:18:04.780Z,19.97
2022-07-28T03:20:35.020Z,20.07
2022-07-28T03:23:02.642Z,20.07
2022-07-28T03:25:39.601Z,20.08
2022-07-28T03:28:09.591Z,19.97
2022-07-28T03:30:43.269Z,19.98
2022-07-28T03:33:11.715Z,19.88
2022-07-28T03:35:45.084Z,19.94
2022-07-28T03:38:17.766Z,19.92
2022-07-28T03:40:46.610Z,19.97
2022-07-28T03:43:17.058Z,19.93
2022-07-28T03:45:46.498Z,19.92
2022-07-28T03:48:15.387Z,19.91
2022-07-28T03:50:43.226Z,19.90
2022-07-28T03:53:19.214Z,19.89
2022-07-28T03:55:51.151Z,19.92
2022-07-28T03:58:29.183Z,20.02
2022-07-28T04:00:57.671Z,20.03
2022-07-28T04:03:42.529Z,20.04
2022-07-28T04:06:11.270Z,20.06
2022-07-28T04:08:38.306Z,19.99
2022-07-28T04:11:05.451Z,19.93
2022-07-28T04:13:32.692Z,20.01
2022-07-28T04:16:01.726Z,20.07
2022-07-28T04:18:29.343Z,20.14
2022-07-28T04:20:56.236Z,20.20
2022-07-28T04:23:24.283Z,20.35
2022-07-28T04:25:51.935Z,20.62
2022-07-28T04:28:21.638Z,20.86
2022-07-28T04:30:48.854Z,21.09
2022-07-28T04:33:16.392Z,21.33
2022-07-28T04:35:43.549Z,21.61
2022-07-28T04:38:12.389Z,21.92
2022-07-28T04:40:39.818Z,22.21
2022-07-28T04:43:07.021Z,22.53
2022-07-28T04:45:34.690Z,22.82
2022-07-28T04:48:01.969Z,23.08
2022-07-28T04:50:29.076Z,23.32
2022-07-28T04:52:56.178Z,23.35
2022-07-28T04:55:23.712Z,23.32
2022-07-28T04:57:51.674Z,23.41
2022-07-28T05:00:22.736Z,23.60
2022-07-28T05:02:51.736Z,23.83
2022-07-28T05:05:19.235Z,24.14
2022-07-28T05:07:46.500Z,24.35
2022-07-28T05:10:13.999Z,24.51
2022-07-28T05:12:42.669Z,24.70
2022-07-28T05:15:12.546Z,25.05
2022-07-28T05:17:39.879Z,25.36
2022-07-28T05:20:08.822Z,25.65
2022-07-28T05:22:43.990Z,25.84
2022-07-28T05:25:20.325Z,26.01
2022-07-28T05:27:48.241Z,26.27
2022-07-28T05:30:16.075Z,26.63
2022-07-28T05:32:43.635Z,26.94
2022-07-28T05:35:10.843Z,27.17
2022-07-28T05:37:39.067Z,27.41
2022-07-28T05:40:14.275Z,27.68
2022-07-28T05:42:43.322Z,27.89
2022-07-28T05:45:16.322Z,27.93
2022-07-28T05:47:49.643Z,27.96
2022-07-28T05:50:18.588Z,28.08
2022-07-28T05:52:47.141Z,28.30
2022-07-28T05:55:14.782Z,28.54
2022-07-28T05:57:41.884Z,28.89
2022-07-28T06:00:11.826Z,29.19
2022-07-28T06:02:40.262Z,29.49
2022-07-28T06:05:08.283Z,29.78
2022-07-28T06:07:43.640Z,30.04
2022-07-28T06:10:16.826Z,30.21
2022-07-28T06:12:50.031Z,30.31
2022-07-28T06:15:19.752Z,30.45
2022-07-28T06:17:46.764Z,30.69
2022-07-28T06:20:14.782Z,30.72
2022-07-28T06:22:47.423Z,30.57
2022-07-28T06:25:19.123Z,30.77
2022-07-28T06:27:47.219Z,30.94
2022-07-28T06:30:15.219Z,31.13
2022-07-28T06:32:42.696Z,31.34
2022-07-28T06:35:11.212Z,31.53
2022-07-28T06:37:38.342Z,31.75
2022-07-28T06:40:05.450Z,31.85
2022-07-28T06:42:32.582Z,31.96
2022-07-28T06:45:00.062Z,32.04
2022-07-28T06:47:27.715Z,32.00
2022-07-28T06:49:54.849Z,32.19
2022-07-28T06:52:22.396Z,32.34
2022-07-28T06:54:53.522Z,32.46
2022-07-28T06:57:28.187Z,32.41
2022-07-28T07:00:05.749Z,32.55
2022-07-28T07:02:34.256Z,32.55
2022-07-28T07:05:01.347Z,32.76
2022-07-28T07:07:28.420Z,33.01
2022-07-28T07:09:55.667Z,33.10
2022-07-28T07:12:22.818Z,33.14
2022-07-28T07:14:49.963Z,33.25
2022-07-28T07:17:17.444Z,33.34
2022-07-28T07:19:44.721Z,33.43
2022-07-28T07:22:15.130Z,33.53
2022-07-28T07:24:42.548Z,33.58
2022-07-28T07:27:09.742Z,33.70
2022-07-28T07:29:36.752Z,33.86
2022-07-28T07:32:06.926Z,33.99
2022-07-28T07:34:39.606Z,34.10
2022-07-28T07:37:10.585Z,34.29
2022-07-28T07:39:38.174Z,34.43
2022-07-28T07:42:05.396Z,34.52
2022-07-28T07:44:32.780Z,34.83
2022-07-28T07:47:00.227Z,34.53
2022-07-28T07:49:27.469Z,34.33
2022-07-28T07:52:12.867Z,34.29
2022-07-28T07:54:40.023Z,34.08
2022-07-28T07:57:07.457Z,34.15
2022-07-28T07:59:34.681Z,34.14
2022-07-28T08:02:02.266Z,34.11
2022-07-28T08:04:29.490Z,34.05
2022-07-28T08:06:57.081Z,34.28
2022-07-28T08:09:24.404Z,34.43
2022-07-28T08:11:51.550Z,34.67
2022-07-28T08:14:18.726Z,34.72
2022-07-28T08:16:45.907Z,34.97
2022-07-28T08:19:12.753Z,35.24
2022-07-28T08:21:39.852Z,35.24
2022-07-28T08:24:07.644Z,35.30
2022-07-28T08:26:34.733Z,35.41
2022-07-28T08:29:01.830Z,35.57
2022-07-28T08:31:29.030Z,35.83
2022-07-28T08:33:58.820Z,35.77
2022-07-28T08:36:25.939Z,35.57
2022-07-28T08:38:52.968Z,35.65
2022-07-28T08:41:33.811Z,35.67
2022-07-28T08:44:04.305Z,35.78
2022-07-28T08:46:38.907Z,35.75
2022-07-28T08:49:09.409Z,35.93
2022-07-28T08:51:38.186Z,35.79
2022-07-28T08:54:06.466Z,35.53
2022-07-28T08:56:33.697Z,35.87
2022-07-28T08:59:02.202Z,35.89
2022-07-28T09:01:38.694Z,36.05
2022-07-28T09:04:11.765Z,35.80
2022-07-28T09:06:43.019Z,35.68
2022-07-28T09:09:10.918Z,35.94
2022-07-28T09:11:39.088Z,36.08
2022-07-28T09:14:07.106Z,36.22
2022-07-28T09:16:34.705Z,36.08
2022-07-28T09:19:01.739Z,35.98
2022-07-28T09:21:29.320Z,36.04
2022-07-28T09:23:56.489Z,36.08
2022-07-28T09:26:23.525Z,36.17
2022-07-28T09:28:57.187Z,36.34
2022-07-28T09:31:26.455Z,36.48
2022-07-28T09:34:06.067Z,36.36
2022-07-28T09:36:42.271Z,36.23
2022-07-28T09:39:09.627Z,36.17
2022-07-28T09:41:55.440Z,36.37
2022-07-28T09:44:24.581Z,36.60
2022-07-28T09:46:51.956Z,36.37
2022-07-28T09:49:21.936Z,36.31
2022-07-28T09:52:04.040Z,35.94
2022-07-28T09:54:31.114Z,36.21
2022-07-28T09:56:58.416Z,36.14
2022-07-28T09:59:26.392Z,36.26
2022-07-28T10:02:02.662Z,36.36
2022-07-28T10:04:36.208Z,36.29
2022-07-28T10:07:08.039Z,36.36
2022-07-28T10:09:35.096Z,36.19
2022-07-28T10:12:22.172Z,35.85
2022-07-28T10:14:52.024Z,35.79
2022-07-28T10:17:35.553Z,35.70
2022-07-28T10:20:06.110Z,35.56
2022-07-28T10:22:39.482Z,35.49
2022-07-28T10:25:12.965Z,35.70
2022-07-28T10:27:45.377Z,35.83
2022-07-28T10:30:13.914Z,35.81
2022-07-28T10:32:45.938Z,35.85
2022-07-28T10:35:15.611Z,35.62
2022-07-28T10:38:16.531Z,35.50
2022-07-28T10:40:47.164Z,35.47
2022-07-28T10:43:15.525Z,35.67
2022-07-28T10:48:34.404Z,36.20
2022-07-28T10:51:05.998Z,36.34
2022-07-28T10:53:41.004Z,36.50
2022-07-28T10:56:26.004Z,36.81
2022-07-28T10:59:29.798Z,37.04
2022-07-28T11:01:57.052Z,36.94
2022-07-28T11:04:48.973Z,37.01
2022-07-28T11:07:17.547Z,37.02
2022-07-28T11:09:47.910Z,37.31
2022-07-28T11:12:16.077Z,37.40
2022-07-28T11:14:45.172Z,37.71
2022-07-28T11:17:16.613Z,37.92
2022-07-28T11:22:45.742Z,37.98
2022-07-28T11:25:18.818Z,37.59
2022-07-28T11:27:52.194Z,37.55
2022-07-28T11:30:19.829Z,37.56
2022-07-28T11:32:55.898Z,37.31
2022-07-28T11:35:27.534Z,37.31
2022-07-28T11:38:03.863Z,37.36
2022-07-28T11:40:32.386Z,37.12
2022-07-28T11:43:36.245Z,36.82
2022-07-28T11:46:11.403Z,36.80
2022-07-28T11:48:40.860Z,37.00
2022-07-28T11:51:07.842Z,37.05
2022-07-28T11:53:38.948Z,36.84
2022-07-28T11:56:09.543Z,36.45
2022-07-28T11:58:37.990Z,36.13
2022-07-28T12:01:32.454Z,35.66
2022-07-28T12:04:15.444Z,35.65
2022-07-28T12:06:51.224Z,35.57
2022-07-28T12:09:41.322Z,35.25
2022-07-28T12:12:13.024Z,34.79
2022-07-28T12:14:41.151Z,34.54
2022-07-28T12:17:08.508Z,34.48
2022-07-28T12:19:35.887Z,34.18
2022-07-28T12:22:15.548Z,34.15
2022-07-28T12:24:44.910Z,34.08
2022-07-28T12:27:14.756Z,34.13
2022-07-28T12:29:42.873Z,34.36
2022-07-28T12:32:10.484Z,34.56
2022-07-28T12:34:40.477Z,34.55
2022-07-28T12:37:12.685Z,34.45
2022-07-28T12:39:42.934Z,34.77
2022-07-28T12:42:12.632Z,34.94
2022-07-28T12:44:41.930Z,35.08
2022-07-28T12:47:13.015Z,35.05
2022-07-28T12:49:42.933Z,35.01
2022-07-28T12:52:22.089Z,35.37
2022-07-28T12:54:55.888Z,35.73
2022-07-28T12:57:51.626Z,35.70
2022-07-28T13:00:37.167Z,35.47
2022-07-28T13:03:26.343Z,35.18
2022-07-28T13:06:04.240Z,35.28
2022-07-28T13:08:44.646Z,35.40
2022-07-28T13:11:42.112Z,35.48
2022-07-28T13:14:01.219Z,35.40
2022-07-28T13:16:30.080Z,35.35
2022-07-28T13:18:59.728Z,35.03
2022-07-28T13:21:58.151Z,34.57
2022-07-28T13:24:28.434Z,33.95
2022-07-28T13:26:56.947Z,33.57
2022-07-28T13:29:24.860Z,33.24
2022-07-28T13:31:55.060Z,32.98
2022-07-28T13:34:22.575Z,32.65
2022-07-28T13:36:49.903Z,32.37
2022-07-28T13:39:17.129Z,32.25
2022-07-28T13:41:57.812Z,32.16
2022-07-28T13:44:27.853Z,32.06
2022-07-28T13:46:56.529Z,31.98
2022-07-28T13:49:24.436Z,31.81
2022-07-28T13:51:51.679Z,31.72
2022-07-28T13:54:19.751Z,31.57
2022-07-28T13:57:12.026Z,31.44
2022-07-28T13:59:40.164Z,31.25
2022-07-28T14:02:15.434Z,31.14
2022-07-28T14:04:45.677Z,31.09
2022-07-28T14:07:13.312Z,30.87
2022-07-28T14:09:48.301Z,30.79
2022-07-28T14:12:15.549Z,30.74
2022-07-28T14:14:47.920Z,30.62
2022-07-28T14:17:44.427Z,30.54
2022-07-28T14:20:05.062Z,30.39
2022-07-28T14:22:32.212Z,30.29
2022-07-28T14:24:59.580Z,30.21
2022-07-28T14:27:29.227Z,30.16
2022-07-28T14:29:57.297Z,29.96
2022-07-28T14:32:27.458Z,29.71
2022-07-28T14:34:54.738Z,29.45
2022-07-28T14:37:21.617Z,29.21
2022-07-28T14:39:48.841Z,28.87
2022-07-28T14:42:15.983Z,28.51
2022-07-28T14:44:43.422Z,28.36
2022-07-28T14:47:10.559Z,28.16
2022-07-28T14:49:38.505Z,27.91
2022-07-28T14:52:27.976Z,27.70
2022-07-28T14:54:55.555Z,27.67
2022-07-28T14:57:24.493Z,27.59
2022-07-28T15:01:09.769Z,27.49
2022-07-28T15:03:37.766Z,27.27
2022-07-28T15:06:10.422Z,26.96
2022-07-28T15:08:38.389Z,26.73
2022-07-28T15:11:23.981Z,26.59
2022-07-28T15:13:51.149Z,26.40
2022-07-28T15:16:19.220Z,26.15
2022-07-28T15:18:46.696Z,25.86
2022-07-28T15:21:16.935Z,25.62
2022-07-28T15:23:44.664Z,25.30
2022-07-28T15:26:14.695Z,25.03
2022-07-28T15:28:41.819Z,24.73
2022-07-28T15:31:09.058Z,24.30
2022-07-28T15:33:45.473Z,24.07
2022-07-28T15:36:17.742Z,23.86
2022-07-28T15:38:49.277Z,23.76
2022-07-28T15:41:19.337Z,23.65
2022-07-28T15:43:46.738Z,23.77
2022-07-28T15:46:14.802Z,23.82
2022-07-28T15:48:44.094Z,23.97
2022-07-28T15:51:11.849Z,23.92
2022-07-28T15:53:39.323Z,23.90
2022-07-28T15:56:06.275Z,23.73
2022-07-28T15:58:34.038Z,23.74
2022-07-28T16:01:02.069Z,23.75
2022-07-28T16:03:30.417Z,23.82
2022-07-28T16:05:59.070Z,23.91
2022-07-28T16:08:27.195Z,23.85
2022-07-28T16:10:55.020Z,23.72
2022-07-28T16:13:35.676Z,23.70
2022-07-28T16:16:16.656Z,23.61
2022-07-28T16:18:44.441Z,23.58
2022-07-28T16:21:11.977Z,23.61
2022-07-28T16:23:39.066Z,23.68
2022-07-28T16:26:10.266Z,23.62
2022-07-28T16:28:37.616Z,23.57
2022-07-28T16:31:06.618Z,23.66
2022-07-28T16:33:34.117Z,23.70
2022-07-28T16:36:04.168Z,23.68
2022-07-28T16:38:31.289Z,23.49
2022-07-28T16:40:58.653Z,23.42
2022-07-28T16:43:25.693Z,23.42
2022-07-28T16:45:52.949Z,23.42
2022-07-28T16:48:20.973Z,23.53
2022-07-28T16:50:49.844Z,23.49
2022-07-28T16:53:17.208Z,23.42
2022-07-28T16:55:45.055Z,23.46
2022-07-28T16:58:12.272Z,23.52
2022-07-28T17:00:39.443Z,23.64
2022-07-28T17:03:14.184Z,23.65
2022-07-28T17:05:41.360Z,23.72
2022-07-28T17:08:09.569Z,23.81
2022-07-28T17:10:36.724Z,23.81
2022-07-28T17:13:05.782Z,23.70
2022-07-28T17:15:36.013Z,23.67
2022-07-28T17:18:03.441Z,23.63
2022-07-28T17:20:30.922Z,23.58
2022-07-28T17:23:00.178Z,23.50
2022-07-28T17:26:20.416Z,23.40
2022-07-28T17:28:17.946Z,23.24
2022-07-28T17:30:45.039Z,23.10
2022-07-28T17:33:15.977Z,22.97
2022-07-28T17:36:09.117Z,22.86
2022-07-28T17:38:36.681Z,22.87
2022-07-28T17:41:04.536Z,22.90
2022-07-28T17:43:32.617Z,22.90
2022-07-28T17:46:00.899Z,22.90
2022-07-28T17:48:28.748Z,22.86
2022-07-28T17:50:55.894Z,22.77
2022-07-28T17:53:24.507Z,22.84
2022-07-28T17:56:01.272Z,22.85
2022-07-28T17:58:34.471Z,22.80
2022-07-28T18:01:23.657Z,22.69
2022-07-28T18:03:57.692Z,22.61
2022-07-28T18:06:34.845Z,22.58
2022-07-28T18:09:08.725Z,22.43
2022-07-28T18:11:56.076Z,22.27
2022-07-28T18:14:30.210Z,22.31
2022-07-28T18:19:45.646Z,22.24
2022-07-28T18:22:13.502Z,22.17
2022-07-28T18:24:40.765Z,22.12
2022-07-28T18:27:07.959Z,22.04
2022-07-28T18:29:38.436Z,22.05
2022-07-28T18:32:09.608Z,22.11
2022-07-28T18:34:37.215Z,22.05
2022-07-28T18:37:05.134Z,22.07
2022-07-28T18:39:32.221Z,22.02
2022-07-28T18:41:59.304Z,22.07
2022-07-28T18:44:28.665Z,22.11
2022-07-28T18:46:58.114Z,22.03
2022-07-28T18:49:25.358Z,22.11
2022-07-28T18:51:53.706Z,22.09
2022-07-28T18:54:27.438Z,22.10
2022-07-28T18:56:55.809Z,22.11
2022-07-28T18:59:23.081Z,22.03
2022-07-28T19:01:50.401Z,21.96
2022-07-28T19:04:18.101Z,21.96
2022-07-28T19:06:45.554Z,21.96
2022-07-28T19:09:12.755Z,21.87
2022-07-28T19:11:45.347Z,21.78
2022-07-28T19:14:14.088Z,21.75
2022-07-28T19:16:41.850Z,21.66
2022-07-28T19:19:11.657Z,21.70
2022-07-28T19:21:42.907Z,21.69
2022-07-28T19:24:11.760Z,21.68
2022-07-28T19:26:39.394Z,21.67
2022-07-28T19:29:06.873Z,21.67
2022-07-28T19:31:34.342Z,21.62
2022-07-28T19:34:01.696Z,21.41
2022-07-28T19:36:29.118Z,21.36
2022-07-28T19:39:03.676Z,21.40
2022-07-28T19:41:32.038Z,21.43
2022-07-28T19:43:59.332Z,21.40
2022-07-28T19:46:26.648Z,21.39
2022-07-28T19:48:54.581Z,21.32
2022-07-28T19:51:22.468Z,21.30
2022-07-28T19:53:54.963Z,21.34
2022-07-28T19:56:30.528Z,21.14
2022-07-28T19:59:02.598Z,21.10
2022-07-28T20:01:29.880Z,21.06
2022-07-28T20:04:00.879Z,21.01
2022-07-28T20:06:33.317Z,20.91
2022-07-28T20:09:02.015Z,20.88
2022-07-28T20:11:29.330Z,20.89
2022-07-28T20:14:05.478Z,20.85
2022-07-28T20:16:36.010Z,20.80
2022-07-28T20:19:03.338Z,20.76
2022-07-28T20:21:38.424Z,20.78
2022-07-28T20:24:07.047Z,20.73
2022-07-28T20:26:34.107Z,20.73
2022-07-28T20:29:08.932Z,20.68
2022-07-28T20:31:37.144Z,20.61
2022-07-28T20:34:07.611Z,20.48
2022-07-28T20:36:35.541Z,20.56
2022-07-28T20:39:15.767Z,20.62
2022-07-28T20:41:50.296Z,20.65
2022-07-28T20:44:28.872Z,20.55
2022-07-28T20:47:04.549Z,20.46
2022-07-28T20:49:32.139Z,20.49
2022-07-28T20:51:59.773Z,20.44
2022-07-28T20:54:28.555Z,20.50
2022-07-28T20:56:56.412Z,20.49
2022-07-28T20:59:27.791Z,20.45
2022-07-28T21:01:55.548Z,20.48
2022-07-28T21:04:24.574Z,20.43
2022-07-28T21:06:55.359Z,20.32
2022-07-28T21:09:34.798Z,20.20
2022-07-28T21:12:04.014Z,20.11
2022-07-28T21:14:34.006Z,20.06
2022-07-28T21:17:02.993Z,20.06
2022-07-28T21:19:30.713Z,20.05
2022-07-28T21:21:57.693Z,19.99
2022-07-28T21:24:24.959Z,20.01
2022-07-28T21:26:53.729Z,20.10
2022-07-28T21:32:04.771Z,19.87
2022-07-28T21:34:35.101Z,19.90
2022-07-28T21:37:07.037Z,19.90
2022-07-28T21:39:35.358Z,19.86
2022-07-28T21:42:09.325Z,19.86
2022-07-28T21:44:38.230Z,19.83
2022-07-28T21:47:05.533Z,19.88
2022-07-28T21:49:35.974Z,19.85
2022-07-28T21:52:06.304Z,19.78
2022-07-28T21:54:36.578Z,19.66
2022-07-28T21:57:04.123Z,19.73
2022-07-28T21:59:49.741Z,19.70
2022-07-28T22:02:17.193Z,19.69
2022-07-28T22:04:44.688Z,19.75
2022-07-28T22:07:12.428Z,19.71
2022-07-28T22:09:42.831Z,19.65
2022-07-28T22:12:13.517Z,19.65
2022-07-28T22:14:43.951Z,19.61
2022-07-28T22:17:11.474Z,19.59
2022-07-28T22:19:40.761Z,19.49
2022-07-28T22:22:08.093Z,19.41
2022-07-28T22:24:38.153Z,19.46
2022-07-28T22:27:06.017Z,19.41
2022-07-28T22:29:33.832Z,19.39
2022-07-28T22:34:57.937Z,19.25
2022-07-28T22:37:25.278Z,19.20
2022-07-28T22:42:33.638Z,19.23
2022-07-28T22:45:01.355Z,19.35
2022-07-28T22:47:28.400Z,19.23
2022-07-28T22:49:56.465Z,19.07
2022-07-28T22:52:30.421Z,19.17
2022-07-28T22:54:58.016Z,19.12
2022-07-28T22:57:26.429Z,19.20
2022-07-28T22:59:56.517Z,19.07
2022-07-28T23:02:26.356Z,19.06
2022-07-28T23:04:53.950Z,19.07
2022-07-28T23:07:51.443Z,18.94
2022-07-28T23:10:12.341Z,18.86
2022-07-28T23:12:42.428Z,18.86
2022-07-28T23:15:09.987Z,18.93
2022-07-28T23:17:37.187Z,18.81
2022-07-28T23:20:08.356Z,18.83
2022-07-28T23:22:35.508Z,18.84
2022-07-28T23:25:04.318Z,18.92
2022-07-28T23:27:32.130Z,18.89
2022-07-28T23:30:01.814Z,18.81
2022-07-28T23:32:29.304Z,18.84
2022-07-28T23:35:00.040Z,18.82
2022-07-28T23:37:27.741Z,18.81
2022-07-28T23:39:59.964Z,18.80
2022-07-28T23:42:28.541Z,18.76
2022-07-28T23:44:55.681Z,18.80
2022-07-28T23:47:22.877Z,18.79
2022-07-28T23:49:50.025Z,18.85
2022-07-28T23:52:17.317Z,18.80
2022-07-28T23:54:44.621Z,18.83
2022-07-28T23:57:11.804Z,18.80
2022-07-28T23:59:39.056Z,18.77
